createdAt,value
2019-02-23T00:01:01.587Z,13.53
2019-02-23T00:03:36.265Z,13.73
2019-02-23T00:06:05.327Z,13.13
2019-02-23T00:08:33.858Z,12.87
2019-02-23T00:11:02.492Z,13.87
2019-02-23T00:13:31.128Z,14.80
2019-02-23T00:16:19.157Z,13.30
2019-02-23T00:18:47.856Z,14.90
2019-02-23T00:21:16.571Z,14.50
2019-02-23T00:23:45.322Z,13.60
2019-02-23T00:26:14.295Z,12.63
2019-02-23T00:28:42.931Z,13.87
2019-02-23T00:31:11.609Z,13.47
2019-02-23T00:33:40.552Z,13.63
2019-02-23T00:36:09.590Z,14.00
2019-02-23T00:38:38.363Z,14.33
2019-02-23T00:41:08.678Z,13.03
2019-02-23T00:43:37.306Z,13.93
2019-02-23T00:46:06.256Z,14.13
2019-02-23T00:48:35.213Z,12.60
2019-02-23T00:51:03.833Z,13.50
2019-02-23T00:53:32.588Z,13.47
2019-02-23T00:56:01.288Z,12.53
2019-02-23T00:58:33.602Z,13.27
2019-02-23T01:01:02.490Z,14.37
2019-02-23T01:03:31.539Z,14.30
2019-02-23T01:06:00.166Z,15.17
2019-02-23T01:08:28.974Z,14.70
2019-02-23T01:10:58.467Z,14.17
2019-02-23T01:13:29.517Z,13.50
2019-02-23T01:15:58.637Z,14.20
2019-02-23T01:18:27.308Z,15.20
2019-02-23T01:20:58.868Z,15.37
2019-02-23T01:23:27.638Z,14.37
2019-02-23T01:25:56.394Z,14.67
2019-02-23T01:28:25.121Z,16.23
2019-02-23T01:30:53.934Z,14.97
2019-02-23T01:33:22.976Z,16.27
2019-02-23T01:35:51.675Z,15.63
2019-02-23T01:38:20.416Z,16.20
2019-02-23T01:40:49.135Z,17.60
2019-02-23T01:43:17.790Z,16.63
2019-02-23T01:45:46.482Z,15.47
2019-02-23T01:48:15.188Z,16.00
2019-02-23T01:50:43.834Z,17.03
2019-02-23T01:53:12.580Z,17.67
2019-02-23T01:55:41.288Z,16.83
2019-02-23T01:58:10.003Z,16.80
2019-02-23T02:00:39.763Z,17.83
2019-02-23T02:03:08.608Z,18.07
2019-02-23T02:05:37.593Z,16.90
2019-02-23T02:08:06.478Z,18.03
2019-02-23T02:10:35.200Z,16.87
2019-02-23T02:13:03.839Z,17.47
2019-02-23T02:15:32.661Z,18.13
2019-02-23T02:18:01.326Z,16.97
2019-02-23T02:20:30.047Z,17.67
2019-02-23T02:22:58.778Z,16.77
2019-02-23T02:25:27.719Z,17.00
2019-02-23T02:27:56.374Z,16.13
2019-02-23T02:30:25.148Z,15.73
2019-02-23T02:32:53.775Z,16.43
2019-02-23T02:35:22.413Z,18.80
2019-02-23T02:37:51.366Z,18.27
2019-02-23T02:40:20.000Z,19.50
2019-02-23T02:42:48.640Z,18.90
2019-02-23T02:45:17.526Z,19.03
2019-02-23T02:47:46.322Z,20.30
2019-02-23T02:50:23.735Z,17.43
2019-02-23T02:52:45.460Z,18.73
2019-02-23T02:55:14.175Z,19.17
2019-02-23T02:57:44.364Z,18.13
2019-02-23T03:00:13.588Z,18.10
2019-02-23T03:02:42.310Z,18.93
2019-02-23T03:05:11.137Z,18.60
2019-02-23T03:07:39.824Z,19.97
2019-02-23T03:10:08.531Z,19.83
2019-02-23T03:12:37.257Z,18.87
2019-02-23T03:15:07.874Z,20.07
2019-02-23T03:17:36.591Z,20.70
2019-02-23T03:20:07.402Z,21.20
2019-02-23T03:22:36.247Z,20.67
2019-02-23T03:25:06.065Z,20.03
2019-02-23T03:27:34.705Z,19.27
2019-02-23T03:30:04.346Z,20.93
2019-02-23T03:32:32.916Z,20.17
2019-02-23T03:35:01.766Z,19.73
2019-02-23T03:37:30.403Z,21.43
2019-02-23T03:39:59.323Z,19.87
2019-02-23T03:42:29.207Z,20.23
2019-02-23T03:44:57.951Z,19.33
2019-02-23T03:47:26.585Z,20.80
2019-02-23T03:49:55.172Z,21.63
2019-02-23T03:52:25.640Z,19.33
2019-02-23T03:54:54.324Z,22.20
2019-02-23T03:57:23.042Z,21.47
2019-02-23T03:59:54.692Z,20.70
2019-02-23T04:02:23.320Z,20.87
2019-02-23T04:04:52.020Z,19.87
2019-02-23T04:07:22.238Z,20.03
2019-02-23T04:09:50.886Z,20.73
2019-02-23T04:12:19.572Z,19.90
2019-02-23T04:14:48.255Z,20.73
2019-02-23T04:17:17.156Z,20.77
2019-02-23T04:19:45.727Z,19.07
2019-02-23T04:22:14.347Z,20.63
2019-02-23T04:24:43.096Z,20.30
2019-02-23T04:27:11.849Z,20.40
2019-02-23T04:29:40.877Z,20.63
2019-02-23T04:32:12.071Z,20.23
2019-02-23T04:34:44.992Z,21.03
2019-02-23T04:37:13.634Z,20.27
2019-02-23T04:39:42.284Z,19.20
2019-02-23T04:42:11.552Z,18.80
2019-02-23T04:44:40.328Z,19.57
2019-02-23T04:47:09.039Z,18.33
2019-02-23T04:49:37.682Z,19.83
2019-02-23T04:52:06.290Z,20.33
2019-02-23T04:54:39.390Z,20.73
2019-02-23T04:57:08.032Z,20.10
2019-02-23T04:59:37.173Z,20.33
2019-02-23T05:02:05.889Z,19.97
2019-02-23T05:04:34.547Z,20.40
2019-02-23T05:07:06.261Z,20.33
2019-02-23T05:09:34.841Z,19.17
2019-02-23T05:12:03.484Z,20.63
2019-02-23T05:14:32.086Z,19.67
2019-02-23T05:17:00.858Z,19.73
2019-02-23T05:19:29.501Z,18.90
2019-02-23T05:21:58.242Z,20.53
2019-02-23T05:24:26.892Z,18.37
2019-02-23T05:26:55.541Z,18.83
2019-02-23T05:29:24.401Z,18.47
2019-02-23T05:31:54.954Z,18.87
2019-02-23T05:34:23.394Z,19.17
2019-02-23T05:36:52.246Z,19.33
2019-02-23T05:39:21.146Z,19.83
2019-02-23T05:41:49.767Z,19.93
2019-02-23T05:44:18.888Z,19.07
2019-02-23T05:46:47.474Z,19.07
2019-02-23T05:49:16.182Z,18.40
2019-02-23T05:51:44.873Z,20.30
2019-02-23T05:54:13.523Z,19.17
2019-02-23T05:56:42.155Z,20.10
2019-02-23T05:59:10.778Z,20.13
2019-02-23T06:01:39.418Z,19.67
2019-02-23T06:04:07.992Z,18.53
2019-02-23T06:06:36.668Z,19.70
2019-02-23T06:09:24.607Z,20.40
2019-02-23T06:11:53.332Z,18.63
2019-02-23T06:14:22.482Z,19.93
2019-02-23T06:16:52.373Z,19.93
2019-02-23T06:19:21.061Z,20.50
2019-02-23T06:21:54.010Z,19.83
2019-02-23T06:24:20.246Z,21.17
2019-02-23T06:26:49.005Z,19.70
2019-02-23T06:29:17.995Z,21.33
2019-02-23T06:31:46.726Z,20.83
2019-02-23T06:34:16.639Z,20.30
2019-02-23T06:36:45.624Z,20.23
2019-02-23T06:39:14.197Z,21.17
2019-02-23T06:41:42.811Z,21.17
2019-02-23T06:44:11.389Z,21.30
2019-02-23T06:46:41.609Z,22.13
2019-02-23T06:49:10.376Z,22.93
2019-02-23T06:51:39.401Z,20.33
2019-02-23T06:54:08.113Z,20.37
2019-02-23T06:56:37.147Z,22.27
2019-02-23T06:59:05.859Z,20.50
2019-02-23T07:01:34.503Z,20.30
2019-02-23T07:04:03.257Z,19.97
2019-02-23T07:06:35.540Z,20.13
2019-02-23T07:09:05.132Z,21.53
2019-02-23T07:11:33.983Z,21.57
2019-02-23T07:14:02.791Z,19.77
2019-02-23T07:16:31.433Z,21.67
2019-02-23T07:19:00.401Z,21.07
2019-02-23T07:21:29.057Z,20.77
2019-02-23T07:23:59.245Z,21.07
2019-02-23T07:26:31.989Z,22.23
2019-02-23T07:29:00.557Z,21.20
2019-02-23T07:31:33.864Z,21.20
2019-02-23T07:34:02.591Z,20.60
2019-02-23T07:36:31.225Z,21.30
2019-02-23T07:38:59.873Z,19.93
2019-02-23T07:41:30.851Z,21.20
2019-02-23T07:43:59.789Z,19.90
2019-02-23T07:46:34.637Z,20.53
2019-02-23T07:49:03.495Z,20.43
2019-02-23T07:51:32.334Z,20.97
2019-02-23T07:54:00.933Z,21.60
2019-02-23T07:56:29.680Z,21.33
2019-02-23T07:58:59.887Z,20.83
2019-02-23T08:01:28.603Z,20.20
2019-02-23T08:03:58.650Z,20.33
2019-02-23T08:06:30.413Z,22.63
2019-02-23T08:08:59.187Z,21.00
2019-02-23T08:11:27.950Z,21.23
2019-02-23T08:13:56.665Z,19.40
2019-02-23T08:16:25.850Z,21.50
2019-02-23T08:18:59.058Z,20.40
2019-02-23T08:21:27.302Z,20.77
2019-02-23T08:24:00.980Z,19.20
2019-02-23T08:26:29.428Z,20.27
2019-02-23T08:28:58.228Z,21.43
2019-02-23T08:31:28.277Z,21.43
2019-02-23T08:34:02.932Z,19.80
2019-02-23T08:36:27.322Z,20.63
2019-02-23T08:39:02.175Z,20.00
2019-02-23T08:41:51.797Z,20.27
2019-02-23T08:44:20.698Z,21.80
2019-02-23T08:46:49.488Z,19.80
2019-02-23T08:49:23.169Z,20.03
2019-02-23T08:51:56.327Z,18.93
2019-02-23T08:54:25.016Z,19.40
2019-02-23T08:56:55.380Z,19.87
2019-02-23T08:59:24.424Z,19.97
2019-02-23T09:01:53.128Z,21.00
2019-02-23T09:04:21.795Z,20.63
2019-02-23T09:06:57.600Z,18.63
2019-02-23T09:09:28.796Z,18.43
2019-02-23T09:11:59.619Z,19.07
2019-02-23T09:14:28.266Z,18.93
2019-02-23T09:16:56.910Z,18.33
2019-02-23T09:19:25.676Z,20.67
2019-02-23T09:21:54.318Z,18.57
2019-02-23T09:24:23.132Z,18.80
2019-02-23T09:26:52.156Z,18.10
2019-02-23T09:29:21.404Z,17.73
2019-02-23T09:31:50.252Z,17.57
2019-02-23T09:34:18.980Z,16.70
2019-02-23T09:36:50.660Z,15.77
2019-02-23T09:39:19.432Z,16.83
2019-02-23T09:41:48.294Z,16.70
2019-02-23T09:44:16.909Z,15.80
2019-02-23T09:46:45.550Z,15.63
2019-02-23T09:49:14.294Z,15.87
2019-02-23T09:51:43.365Z,14.53
2019-02-23T09:54:16.207Z,15.07
2019-02-23T09:56:46.453Z,14.63
2019-02-23T09:59:15.532Z,15.37
2019-02-23T10:01:44.356Z,13.40
2019-02-23T10:04:13.015Z,12.50
2019-02-23T10:06:41.737Z,13.53
2019-02-23T10:09:10.382Z,12.80
2019-02-23T10:11:39.243Z,14.40
2019-02-23T10:14:07.840Z,12.80
2019-02-23T10:16:39.480Z,11.93
2019-02-23T10:19:08.209Z,11.60
2019-02-23T10:21:38.330Z,12.10
2019-02-23T10:24:07.614Z,11.80
2019-02-23T10:26:36.663Z,11.37
2019-02-23T10:29:05.226Z,12.43
2019-02-23T10:31:37.942Z,10.53
2019-02-23T10:34:07.785Z,12.27
2019-02-23T10:36:36.431Z,10.90
2019-02-23T10:39:05.579Z,10.43
2019-02-23T10:41:34.389Z,11.67
2019-02-23T10:44:04.850Z,11.23
2019-02-23T10:46:38.648Z,10.47
2019-02-23T10:49:10.395Z,10.53
2019-02-23T10:51:41.791Z,10.37
2019-02-23T10:54:10.548Z,10.70
2019-02-23T10:56:39.326Z,11.17
2019-02-23T10:59:08.570Z,11.50
2019-02-23T11:01:37.182Z,10.53
2019-02-23T11:04:05.885Z,10.27
2019-02-23T11:06:34.958Z,10.97
2019-02-23T11:09:04.183Z,12.00
2019-02-23T11:11:32.957Z,11.33
2019-02-23T11:14:04.757Z,10.10
2019-02-23T11:16:35.784Z,10.50
2019-02-23T11:19:09.733Z,11.03
2019-02-23T11:21:38.485Z,10.17
2019-02-23T11:24:08.851Z,10.63
2019-02-23T11:26:44.545Z,11.77
2019-02-23T11:29:13.329Z,10.83
2019-02-23T11:31:42.235Z,12.00
2019-02-23T11:34:10.927Z,11.30
2019-02-23T11:36:39.887Z,12.43
2019-02-23T11:39:11.033Z,11.73
2019-02-23T11:41:42.710Z,10.03
2019-02-23T11:44:11.456Z,11.87
2019-02-23T11:46:59.389Z,10.97
2019-02-23T11:49:12.305Z,10.73
2019-02-23T11:51:41.136Z,10.97
2019-02-23T11:54:13.404Z,11.17
2019-02-23T11:56:43.722Z,10.03
2019-02-23T11:59:12.541Z,10.53
2019-02-23T12:01:41.195Z,11.17
2019-02-23T12:04:11.777Z,9.70
2019-02-23T12:06:40.894Z,9.43
2019-02-23T12:09:09.990Z,9.03
2019-02-23T12:11:38.702Z,8.73
2019-02-23T12:14:07.518Z,9.57
2019-02-23T12:16:36.218Z,9.07
2019-02-23T12:19:04.936Z,9.47
2019-02-23T12:21:33.861Z,8.70
2019-02-23T12:24:06.068Z,9.67
2019-02-23T12:26:33.324Z,8.83
2019-02-23T12:29:03.852Z,8.37
2019-02-23T12:31:32.882Z,9.63
2019-02-23T12:34:01.642Z,8.53
2019-02-23T12:36:32.806Z,7.77
2019-02-23T12:39:01.533Z,8.40
2019-02-23T12:41:32.880Z,9.30
2019-02-23T12:44:04.017Z,8.57
2019-02-23T12:46:36.384Z,8.93
2019-02-23T12:49:08.322Z,8.63
2019-02-23T12:51:39.451Z,8.53
2019-02-23T12:54:17.161Z,8.37
2019-02-23T12:56:47.621Z,8.60
2019-02-23T12:59:21.163Z,8.53
2019-02-23T13:02:10.642Z,8.27
2019-02-23T13:04:39.402Z,9.73
2019-02-23T13:07:10.920Z,9.33
2019-02-23T13:09:40.900Z,10.03
2019-02-23T13:12:33.499Z,9.17
2019-02-23T13:15:20.249Z,10.20
2019-02-23T13:18:04.610Z,10.10
2019-02-23T13:20:59.052Z,9.17
2019-02-23T13:23:39.784Z,9.10
2019-02-23T13:26:29.737Z,9.10
2019-02-23T13:29:16.561Z,9.23
2019-02-23T13:31:57.455Z,8.63
2019-02-23T13:34:32.671Z,8.30
2019-02-23T13:37:22.940Z,8.33
2019-02-23T13:40:00.314Z,8.97
2019-02-23T13:42:43.984Z,10.10
2019-02-23T13:45:39.995Z,10.27
2019-02-23T13:48:51.088Z,9.70
2019-02-23T13:51:31.927Z,9.50
2019-02-23T13:54:15.966Z,9.20
2019-02-23T13:57:08.797Z,10.00
2019-02-23T14:00:08.636Z,10.00
2019-02-23T14:03:15.045Z,9.40
2019-02-23T14:05:46.683Z,10.27
2019-02-23T14:08:39.896Z,13.13
2019-02-23T14:11:19.731Z,11.03
2019-02-23T14:13:57.071Z,11.67
2019-02-23T14:16:54.497Z,11.70
2019-02-23T14:19:35.064Z,11.63
2019-02-23T14:22:39.834Z,11.03
2019-02-23T14:25:31.406Z,11.10
2019-02-23T14:28:06.611Z,11.50
2019-02-23T14:30:49.365Z,12.23
2019-02-23T14:33:23.891Z,12.00
2019-02-23T14:36:01.596Z,12.43
2019-02-23T14:39:07.302Z,12.07
2019-02-23T14:41:39.007Z,12.10
2019-02-23T14:44:15.977Z,11.90
2019-02-23T14:47:02.131Z,13.17
2019-02-23T14:49:42.585Z,11.90
2019-02-23T14:52:35.650Z,13.07
2019-02-23T14:55:13.199Z,12.33
2019-02-23T14:57:45.091Z,12.70
2019-02-23T15:00:24.841Z,12.70
2019-02-23T15:03:24.566Z,12.13
2019-02-23T15:09:19.566Z,12.23
2019-02-23T15:12:08.087Z,11.90
2019-02-23T15:15:03.816Z,11.47
2019-02-23T15:17:44.379Z,12.67
2019-02-23T15:20:32.525Z,13.07
2019-02-23T15:23:06.870Z,12.63
2019-02-23T15:25:43.635Z,12.37
2019-02-23T15:28:43.853Z,12.60
2019-02-23T15:31:34.863Z,12.93
2019-02-23T15:34:30.631Z,12.70
2019-02-23T15:37:18.683Z,13.30
2019-02-23T15:40:05.199Z,11.43
2019-02-23T15:42:59.954Z,13.00
2019-02-23T15:45:57.391Z,11.73
2019-02-23T15:48:53.676Z,12.30
2019-02-23T15:51:24.044Z,12.37
2019-02-23T15:53:55.405Z,12.07
2019-02-23T15:56:24.549Z,11.27
2019-02-23T15:59:01.562Z,11.97
2019-02-23T16:01:34.177Z,11.50
2019-02-23T16:04:05.580Z,11.20
2019-02-23T16:06:37.126Z,11.67
2019-02-23T16:09:06.694Z,11.73
2019-02-23T16:11:38.152Z,11.40
2019-02-23T16:14:06.864Z,10.73
2019-02-23T16:16:38.169Z,10.60
2019-02-23T16:19:12.070Z,10.37
2019-02-23T16:21:42.379Z,10.50
2019-02-23T16:24:11.260Z,11.03
2019-02-23T16:26:40.280Z,10.73
2019-02-23T16:29:13.737Z,10.93
2019-02-23T16:31:45.557Z,10.23
2019-02-23T16:34:17.419Z,10.10
2019-02-23T16:36:46.254Z,9.80
2019-02-23T16:39:16.664Z,9.30
2019-02-23T16:41:45.380Z,11.13
2019-02-23T16:44:14.301Z,10.77
2019-02-23T16:46:46.180Z,10.47
2019-02-23T16:49:16.640Z,9.27
2019-02-23T16:51:46.868Z,8.93
2019-02-23T16:54:16.675Z,9.47
2019-02-23T16:56:48.402Z,9.93
2019-02-23T16:59:21.940Z,9.97
2019-02-23T17:02:00.767Z,9.73
2019-02-23T17:04:30.112Z,9.57
2019-02-23T17:07:01.451Z,9.23
2019-02-23T17:09:31.741Z,9.63
2019-02-23T17:12:04.933Z,9.00
2019-02-23T17:14:33.819Z,9.63
2019-02-23T17:17:05.414Z,8.73
2019-02-23T17:19:34.305Z,9.30
2019-02-23T17:22:04.713Z,9.53
2019-02-23T17:24:33.417Z,10.23
2019-02-23T17:27:06.485Z,10.43
2019-02-23T17:29:39.734Z,9.93
2019-02-23T17:32:09.301Z,10.23
2019-02-23T17:34:39.744Z,10.77
2019-02-23T17:37:08.470Z,10.17
2019-02-23T17:39:45.956Z,9.43
2019-02-23T17:42:27.680Z,9.83
2019-02-23T17:44:49.165Z,10.30
2019-02-23T17:47:17.956Z,10.67
2019-02-23T17:49:49.354Z,12.50
2019-02-23T17:52:19.643Z,11.83
2019-02-23T17:54:48.314Z,11.13
2019-02-23T17:57:20.529Z,11.37
2019-02-23T17:59:49.461Z,11.73
2019-02-23T18:02:19.386Z,11.13
2019-02-23T18:04:48.265Z,11.73
2019-02-23T18:07:20.209Z,11.67
2019-02-23T18:09:50.260Z,11.87
2019-02-23T18:12:21.217Z,13.63
2019-02-23T18:14:53.129Z,13.67
2019-02-23T18:17:24.703Z,12.23
2019-02-23T18:19:55.538Z,12.50
2019-02-23T18:22:28.456Z,11.13
2019-02-23T18:24:57.142Z,12.43
2019-02-23T18:27:30.619Z,12.67
2019-02-23T18:29:59.590Z,12.40
2019-02-23T18:32:28.615Z,13.17
2019-02-23T18:35:00.582Z,14.53
2019-02-23T18:37:29.685Z,13.30
2019-02-23T18:40:00.846Z,12.93
2019-02-23T18:42:33.471Z,13.73
2019-02-23T18:45:09.997Z,13.80
2019-02-23T18:47:39.270Z,14.77
2019-02-23T18:50:11.716Z,14.23
2019-02-23T18:52:57.671Z,13.93
2019-02-23T18:55:28.896Z,14.20
2019-02-23T18:57:58.417Z,15.33
2019-02-23T19:00:28.736Z,15.87
2019-02-23T19:03:00.347Z,14.70
2019-02-23T19:05:30.950Z,14.03
2019-02-23T19:08:02.311Z,14.33
2019-02-23T19:10:31.389Z,13.53
2019-02-23T19:13:01.766Z,14.23
2019-02-23T19:15:31.184Z,15.03
2019-02-23T19:18:00.346Z,15.20
2019-02-23T19:20:29.401Z,14.40
2019-02-23T19:23:00.907Z,13.60
2019-02-23T19:25:29.544Z,13.13
2019-02-23T19:28:02.683Z,13.37
2019-02-23T19:30:31.477Z,13.73
2019-02-23T19:33:01.987Z,14.70
2019-02-23T19:35:33.068Z,16.10
2019-02-23T19:38:01.814Z,13.93
2019-02-23T19:40:32.456Z,15.20
2019-02-23T19:43:00.835Z,14.40
2019-02-23T19:45:35.404Z,13.33
2019-02-23T19:48:07.284Z,11.80
2019-02-23T19:50:42.298Z,11.43
2019-02-23T19:53:11.299Z,13.07
2019-02-23T19:55:41.820Z,12.53
2019-02-23T19:58:11.325Z,11.70
2019-02-23T20:00:40.052Z,11.87
2019-02-23T20:03:12.126Z,11.93
2019-02-23T20:05:41.310Z,12.30
2019-02-23T20:08:10.955Z,12.57
2019-02-23T20:10:39.663Z,12.33
2019-02-23T20:13:10.309Z,14.13
2019-02-23T20:15:39.111Z,14.83
2019-02-23T20:18:07.756Z,14.93
2019-02-23T20:20:36.426Z,13.90
2019-02-23T20:23:05.055Z,13.30
2019-02-23T20:25:33.725Z,14.87
2019-02-23T20:28:02.472Z,13.97
2019-02-23T20:33:19.692Z,13.13
2019-02-23T20:35:48.354Z,12.83
2019-02-23T20:38:17.203Z,12.70
2019-02-23T20:40:46.114Z,13.47
2019-02-23T20:43:15.275Z,13.33
2019-02-23T20:45:49.977Z,13.67
2019-02-23T20:48:18.750Z,13.27
2019-02-23T20:50:48.070Z,13.43
2019-02-23T20:53:19.422Z,12.43
2019-02-23T20:55:48.129Z,13.10
2019-02-23T20:58:17.893Z,13.00
2019-02-23T21:00:49.424Z,12.40
2019-02-23T21:03:18.260Z,12.90
2019-02-23T21:05:54.278Z,12.00
2019-02-23T21:08:26.092Z,10.57
2019-02-23T21:10:58.825Z,11.30
2019-02-23T21:13:27.765Z,11.20
2019-02-23T21:15:56.462Z,11.37
2019-02-23T21:18:25.118Z,10.50
2019-02-23T21:20:54.289Z,9.97
2019-02-23T21:23:22.836Z,10.93
2019-02-23T21:25:52.936Z,9.73
2019-02-23T21:28:21.572Z,14.67
2019-02-23T21:30:52.488Z,13.00
2019-02-23T21:33:21.630Z,16.80
2019-02-23T21:35:50.326Z,14.10
2019-02-23T21:38:20.205Z,11.43
2019-02-23T21:40:48.869Z,15.93
2019-02-23T21:43:17.700Z,14.43
2019-02-23T21:45:46.384Z,22.50
2019-02-23T21:48:14.959Z,17.63
2019-02-23T21:50:44.782Z,15.23
2019-02-23T21:53:16.560Z,15.03
2019-02-23T21:55:48.115Z,18.60
2019-02-23T21:58:16.818Z,23.93
2019-02-23T22:00:47.269Z,39.90
2019-02-23T22:03:15.944Z,31.90
2019-02-23T22:05:45.078Z,22.60
2019-02-23T22:08:22.514Z,17.40
2019-02-23T22:10:51.202Z,16.13
2019-02-23T22:13:20.154Z,15.50
2019-02-23T22:15:49.203Z,16.07
2019-02-23T22:18:19.497Z,14.67
2019-02-23T22:20:49.798Z,14.50
2019-02-23T22:23:18.534Z,12.73
2019-02-23T22:25:47.258Z,11.40
2019-02-23T22:28:15.886Z,12.20
2019-02-23T22:30:44.913Z,12.53
2019-02-23T22:33:14.356Z,14.13
2019-02-23T22:35:50.073Z,14.27
2019-02-23T22:38:20.462Z,12.87
2019-02-23T22:40:51.242Z,12.70
2019-02-23T22:43:21.466Z,12.93
2019-02-23T22:45:50.386Z,14.13
2019-02-23T22:48:22.078Z,13.03
2019-02-23T22:50:51.249Z,12.97
2019-02-23T22:53:20.302Z,14.37
2019-02-23T22:55:48.933Z,13.80
2019-02-23T22:58:18.821Z,13.30
2019-02-23T23:00:58.241Z,12.83
2019-02-23T23:03:27.065Z,13.27
2019-02-23T23:05:56.020Z,13.50
2019-02-23T23:08:24.935Z,16.73
2019-02-23T23:11:00.978Z,14.87
2019-02-23T23:13:43.838Z,15.43
2019-02-23T23:16:12.310Z,14.93
2019-02-23T23:18:44.223Z,14.63
2019-02-23T23:21:12.867Z,11.27
2019-02-23T23:23:43.430Z,11.57
2019-02-23T23:26:16.845Z,11.67
2019-02-23T23:28:45.494Z,12.20
2019-02-23T23:31:16.742Z,12.67
2019-02-23T23:33:45.315Z,11.97
2019-02-23T23:36:17.102Z,11.57
2019-02-23T23:38:45.978Z,10.00
2019-02-23T23:41:22.272Z,9.47
2019-02-23T23:43:51.471Z,9.20
2019-02-23T23:46:20.777Z,9.50
2019-02-23T23:48:49.433Z,8.63
2019-02-23T23:51:18.505Z,10.00
2019-02-23T23:53:47.082Z,10.93
2019-02-23T23:56:15.794Z,10.30
2019-02-23T23:58:44.390Z,10.07
